createdAt,value
2019-01-13T00:01:32.483Z,99405.47
2019-01-13T00:04:42.793Z,99393.05
2019-01-13T00:07:15.601Z,99393.33
2019-01-13T00:12:51.539Z,99386.30
2019-01-13T00:15:25.143Z,99372.74
2019-01-13T00:17:56.264Z,99378.55
2019-01-13T00:21:08.369Z,99382.02
2019-01-13T00:23:40.383Z,99386.77
2019-01-13T00:26:32.461Z,99397.33
2019-01-13T00:32:26.810Z,99399.30
2019-01-13T00:34:58.334Z,99402.05
2019-01-13T00:37:33.199Z,99412.83
2019-01-13T00:40:36.055Z,99409.21
2019-01-13T00:42:56.853Z,99410.70
2019-01-13T00:49:12.918Z,99391.69
2019-01-13T00:52:04.993Z,99407.31
2019-01-13T00:54:38.240Z,99411.26
2019-01-13T01:00:28.868Z,99425.88
2019-01-13T01:03:19.003Z,99421.55
2019-01-13T01:05:53.902Z,99435.71
2019-01-13T01:08:44.113Z,99442.54
2019-01-13T01:14:39.723Z,99441.78
2019-01-13T01:17:11.541Z,99445.78
2019-01-13T01:20:03.610Z,99454.27
2019-01-13T01:22:39.608Z,99452.49
2019-01-13T01:25:14.131Z,99445.83
2019-01-13T01:27:45.244Z,99433.56
2019-01-13T01:30:57.158Z,99437.30
2019-01-13T01:36:28.688Z,99450.13
2019-01-13T01:57:43.609Z,99451.13
2019-01-13T02:00:40.319Z,99426.59
2019-01-13T02:03:07.463Z,99448.18
2019-01-13T02:05:57.516Z,99442.05
2019-01-13T02:08:47.620Z,99449.41
2019-01-13T02:11:37.460Z,99453.94
2019-01-13T02:14:28.101Z,99460.81
2019-01-13T02:17:00.394Z,99445.53
2019-01-13T02:19:32.748Z,99448.50
2019-01-13T02:22:22.890Z,99452.34
2019-01-13T02:24:54.027Z,99453.27
2019-01-13T02:27:38.073Z,99454.97
2019-01-13T02:30:00.273Z,99446.77
2019-01-13T02:32:51.179Z,99457.84
2019-01-13T02:35:22.592Z,99458.55
2019-01-13T02:37:53.737Z,99452.87
2019-01-13T02:44:03.947Z,99449.57
2019-01-13T02:46:55.268Z,99449.80
2019-01-13T02:58:01.967Z,99427.12
2019-01-13T03:00:46.201Z,99426.84
2019-01-13T03:03:25.655Z,99433.52
2019-01-13T03:05:56.699Z,99433.50
2019-01-13T03:08:46.375Z,99409.59
2019-01-13T03:14:20.093Z,99403.23
2019-01-13T03:16:52.012Z,99402.95
2019-01-13T03:19:23.117Z,99396.37
2019-01-13T03:21:54.643Z,99390.34
2019-01-13T03:27:28.950Z,99394.24
2019-01-13T03:33:01.769Z,99377.34
2019-01-13T03:35:32.935Z,99377.97
2019-01-13T03:38:04.057Z,99372.73
2019-01-13T03:40:55.532Z,99366.48
2019-01-13T03:43:48.031Z,99375.67
2019-01-13T03:46:57.345Z,99373.36
2019-01-13T03:50:08.690Z,99371.61
2019-01-13T03:53:21.636Z,99382.92
2019-01-13T03:56:15.212Z,99385.55
2019-01-13T03:59:09.143Z,99387.08
2019-01-13T04:02:04.524Z,99376.98
2019-01-13T04:04:54.521Z,99364.92
2019-01-13T04:07:45.410Z,99379.77
2019-01-13T04:10:46.916Z,99381.98
2019-01-13T04:13:40.041Z,99376.87
2019-01-13T04:19:56.934Z,99380.69
2019-01-13T04:22:47.195Z,99381.96
2019-01-13T04:26:09.037Z,99379.00
2019-01-13T04:28:50.518Z,99374.41
2019-01-13T04:32:03.337Z,99364.72
2019-01-13T04:38:25.595Z,99341.01
2019-01-13T04:41:16.234Z,99333.73
2019-01-13T04:43:46.485Z,99328.77
2019-01-13T04:49:39.308Z,99330.84
2019-01-13T04:52:29.371Z,99326.54
2019-01-13T04:55:18.290Z,99317.19
2019-01-13T04:58:21.642Z,99317.06
2019-01-13T05:01:13.593Z,99312.92
2019-01-13T05:04:14.411Z,99311.23
2019-01-13T05:06:56.901Z,99309.06
2019-01-13T05:15:43.346Z,99273.44
2019-01-13T05:18:16.682Z,99270.78
2019-01-13T05:24:24.921Z,99275.47
2019-01-13T05:27:15.764Z,99273.05
2019-01-13T05:29:47.818Z,99258.69
2019-01-13T05:38:56.471Z,99261.11
2019-01-13T05:41:28.417Z,99259.96
2019-01-13T05:44:17.602Z,99255.36
2019-01-13T05:46:47.728Z,99267.06
2019-01-13T05:49:18.947Z,99272.23
2019-01-13T05:51:49.983Z,99254.66
2019-01-13T05:54:21.090Z,99250.93
2019-01-13T05:57:11.380Z,99251.66
2019-01-13T06:02:51.341Z,99247.84
2019-01-13T06:05:23.335Z,99241.70
2019-01-13T06:08:12.450Z,99223.34
2019-01-13T06:13:53.037Z,99216.84
2019-01-13T06:16:24.147Z,99207.45
2019-01-13T06:18:55.292Z,99198.28
2019-01-13T06:21:45.354Z,99179.43
2019-01-13T06:24:15.577Z,99181.66
2019-01-13T06:26:46.626Z,99176.74
2019-01-13T06:29:35.741Z,99168.68
2019-01-13T06:32:17.219Z,99172.73
2019-01-13T06:35:07.252Z,99177.83
2019-01-13T06:37:50.379Z,99185.80
2019-01-13T06:43:38.595Z,99168.75
2019-01-13T06:46:27.803Z,99176.95
2019-01-13T06:51:58.376Z,99162.80
2019-01-13T06:54:29.509Z,99162.43
2019-01-13T06:57:00.550Z,99167.30
2019-01-13T06:59:31.694Z,99169.16
2019-01-13T07:02:03.497Z,99164.95
2019-01-13T07:04:35.882Z,99177.32
2019-01-13T07:07:06.099Z,99174.82
2019-01-13T07:09:37.238Z,99160.13
2019-01-13T07:12:08.231Z,99165.02
2019-01-13T07:14:40.148Z,99165.02
2019-01-13T07:17:11.260Z,99171.45
2019-01-13T07:20:01.321Z,99166.30
2019-01-13T07:25:35.796Z,99173.45
2019-01-13T07:28:05.992Z,99182.64
2019-01-13T07:30:37.988Z,99186.08
2019-01-13T07:33:09.055Z,99201.59
2019-01-13T07:35:40.162Z,99191.94
2019-01-13T07:38:30.731Z,99196.44
2019-01-13T07:41:02.235Z,99185.05
2019-01-13T07:43:33.292Z,99187.39
2019-01-13T07:46:24.190Z,99175.42
2019-01-13T07:48:55.279Z,99168.98
2019-01-13T07:51:25.449Z,99157.20
2019-01-13T07:54:27.701Z,99147.02
2019-01-13T07:56:49.219Z,99146.28
2019-01-13T08:05:13.490Z,99135.89
2019-01-13T08:07:44.555Z,99132.09
2019-01-13T08:10:15.524Z,99124.34
2019-01-13T08:13:06.485Z,99125.34
2019-01-13T08:15:56.534Z,99124.97
2019-01-13T08:18:46.670Z,99124.97
2019-01-13T08:21:17.870Z,99116.70
2019-01-13T08:23:48.927Z,99111.41
2019-01-13T08:26:39.906Z,99112.41
2019-01-13T08:29:29.723Z,99110.52
2019-01-13T08:32:24.938Z,99103.34
2019-01-13T08:34:52.591Z,99085.80
2019-01-13T08:37:43.849Z,99088.42
2019-01-13T08:40:17.848Z,99088.42
2019-01-13T08:43:07.982Z,99074.00
2019-01-13T08:45:42.153Z,99074.50
2019-01-13T08:51:16.635Z,99080.05
2019-01-13T08:54:08.030Z,99065.22
2019-01-13T08:56:40.049Z,99063.41
2019-01-13T08:59:31.041Z,99063.28
2019-01-13T09:02:21.944Z,99056.59
2019-01-13T09:04:53.391Z,99049.31
2019-01-13T09:07:43.208Z,99042.77
2019-01-13T09:10:33.325Z,99030.35
2019-01-13T09:13:43.077Z,99022.86
2019-01-13T09:16:34.028Z,99014.35
2019-01-13T09:22:26.019Z,99010.81
2019-01-13T09:25:22.221Z,99009.10
2019-01-13T09:28:12.307Z,99009.78
2019-01-13T09:31:02.473Z,98997.16
2019-01-13T09:33:53.834Z,98984.70
2019-01-13T09:36:24.977Z,98978.88
2019-01-13T09:38:56.072Z,98967.08
2019-01-13T09:41:47.007Z,98965.47
2019-01-13T09:44:20.449Z,98965.42
2019-01-13T09:46:51.525Z,98969.34
2019-01-13T09:49:41.724Z,98962.55
2019-01-13T09:55:34.025Z,98959.38
2019-01-13T09:58:05.242Z,98953.66
2019-01-13T10:00:46.309Z,98944.95
2019-01-13T10:03:17.386Z,98941.92
2019-01-13T10:05:50.044Z,98927.73
2019-01-13T10:08:22.009Z,98933.24
2019-01-13T10:20:44.595Z,98900.67
2019-01-13T10:26:28.620Z,98905.11
2019-01-13T10:29:06.587Z,98900.38
2019-01-13T10:34:50.941Z,98898.60
2019-01-13T10:40:27.674Z,98873.80
2019-01-13T10:42:59.819Z,98858.47
2019-01-13T10:45:33.430Z,98850.16
2019-01-13T10:48:23.321Z,98845.91
2019-01-13T10:50:55.305Z,98831.73
2019-01-13T10:56:27.083Z,98805.41
2019-01-13T10:59:17.250Z,98803.93
2019-01-13T11:01:48.367Z,98812.16
2019-01-13T11:04:39.386Z,98824.27
2019-01-13T11:07:10.465Z,98801.19
2019-01-13T11:09:42.449Z,98803.61
2019-01-13T11:15:21.468Z,98811.97
2019-01-13T11:18:08.653Z,98792.61
2019-01-13T11:20:40.616Z,98789.30
2019-01-13T11:23:30.754Z,98779.50
2019-01-13T11:26:01.914Z,98780.24
2019-01-13T11:28:52.915Z,98780.31
2019-01-13T11:31:26.087Z,98788.56
2019-01-13T11:34:49.584Z,98779.21
2019-01-13T11:37:13.965Z,98768.52
2019-01-13T11:39:56.091Z,98765.86
2019-01-13T11:45:23.741Z,98741.81
2019-01-13T11:51:24.701Z,98721.13
2019-01-13T11:54:16.036Z,98709.33
2019-01-13T11:57:06.438Z,98701.52
2019-01-13T11:59:50.372Z,98702.14
2019-01-13T12:02:41.969Z,98699.86
2019-01-13T12:08:28.262Z,98662.47
2019-01-13T12:10:59.619Z,98647.14
2019-01-13T12:13:33.857Z,98653.70
2019-01-13T12:19:29.866Z,98675.08
2019-01-13T12:22:21.529Z,98673.77
2019-01-13T12:24:52.623Z,98642.53
2019-01-13T12:27:44.805Z,98661.80
2019-01-13T12:30:27.025Z,98654.20
2019-01-13T12:32:58.432Z,98664.17
2019-01-13T12:35:48.525Z,98663.25
2019-01-13T12:38:52.939Z,98657.39
2019-01-13T12:41:11.489Z,98639.61
2019-01-13T12:43:42.681Z,98642.10
2019-01-13T12:46:33.663Z,98643.34
2019-01-13T12:49:05.641Z,98610.42
2019-01-13T12:51:48.843Z,98625.12
2019-01-13T13:00:16.079Z,98619.38
2019-01-13T13:02:47.558Z,98614.45
2019-01-13T13:05:50.852Z,98611.08
2019-01-13T13:14:53.274Z,98593.05
2019-01-13T13:17:36.183Z,98593.98
2019-01-13T13:20:10.737Z,98553.61
2019-01-13T13:23:00.847Z,98556.64
2019-01-13T13:25:32.320Z,98554.14
2019-01-13T13:28:23.734Z,98568.69
2019-01-13T13:30:54.992Z,98545.25
2019-01-13T13:33:57.436Z,98559.14
2019-01-13T13:36:57.129Z,98549.09
2019-01-13T13:39:47.224Z,98538.82
2019-01-13T13:42:19.189Z,98517.48
2019-01-13T13:45:22.077Z,98512.41
2019-01-13T13:47:41.826Z,98506.73
2019-01-13T13:50:15.090Z,98513.74
2019-01-13T13:53:24.276Z,98508.80
2019-01-13T13:55:55.378Z,98508.00
2019-01-13T14:01:45.323Z,98513.84
2019-01-13T14:04:58.645Z,98503.59
2019-01-13T14:10:47.003Z,98508.72
2019-01-13T14:13:20.617Z,98486.63
2019-01-13T14:19:00.569Z,98479.41
2019-01-13T14:21:50.690Z,98462.44
2019-01-13T14:27:46.933Z,98484.49
2019-01-13T14:33:53.006Z,98475.19
2019-01-13T14:36:22.343Z,98480.92
2019-01-13T14:39:12.765Z,98478.13
2019-01-13T14:41:43.877Z,98474.80
2019-01-13T14:47:50.819Z,98437.64
2019-01-13T14:50:23.834Z,98442.34
2019-01-13T14:52:55.186Z,98438.19
2019-01-13T14:55:45.276Z,98417.80
2019-01-13T14:58:35.400Z,98423.91
2019-01-13T15:01:06.560Z,98409.48
2019-01-13T15:03:37.755Z,98401.91
2019-01-13T15:06:09.463Z,98385.34
2019-01-13T15:08:59.569Z,98381.94
2019-01-13T15:11:49.982Z,98386.80
2019-01-13T15:14:21.187Z,98389.61
2019-01-13T15:17:11.304Z,98371.30
2019-01-13T15:25:28.671Z,98378.92
2019-01-13T15:33:42.972Z,98333.91
2019-01-13T15:39:16.361Z,98352.20
2019-01-13T15:44:50.968Z,98341.98
2019-01-13T15:47:22.099Z,98346.48
2019-01-13T15:52:43.105Z,98331.44
2019-01-13T15:55:15.090Z,98305.69
2019-01-13T15:57:47.085Z,98300.69
2019-01-13T16:00:22.659Z,98305.27
2019-01-13T16:02:54.660Z,98288.70
2019-01-13T16:05:25.749Z,98313.31
2019-01-13T16:07:56.815Z,98321.87
2019-01-13T16:10:30.425Z,98325.02
2019-01-13T16:16:11.172Z,98300.50
2019-01-13T16:18:42.262Z,98298.31
2019-01-13T16:24:16.842Z,98303.53
2019-01-13T16:26:48.269Z,98300.48
2019-01-13T16:29:20.271Z,98298.72
2019-01-13T16:31:52.198Z,98276.55
2019-01-13T16:34:57.089Z,98274.55
2019-01-13T16:37:18.746Z,98275.21
2019-01-13T16:42:55.267Z,98289.59
2019-01-13T16:45:30.396Z,98279.95
2019-01-13T16:48:21.429Z,98281.09
2019-01-13T16:50:52.585Z,98287.87
2019-01-13T16:53:26.921Z,98274.62
2019-01-13T16:55:59.274Z,98263.34
2019-01-13T16:58:49.400Z,98270.39
2019-01-13T17:01:40.370Z,98268.39
2019-01-13T17:07:13.282Z,98288.86
2019-01-13T17:09:44.401Z,98277.23
2019-01-13T17:12:54.327Z,98264.30
2019-01-13T17:15:45.056Z,98284.95
2019-01-13T17:21:17.871Z,98272.16
2019-01-13T17:23:49.981Z,98279.77
2019-01-13T17:26:56.377Z,98277.30
2019-01-13T17:29:36.417Z,98270.98
2019-01-13T17:41:19.397Z,98225.50
2019-01-13T17:46:45.657Z,98247.94
2019-01-13T17:49:17.750Z,98245.48
2019-01-13T17:51:50.013Z,98240.50
2019-01-13T17:54:21.870Z,98198.46
2019-01-13T18:00:41.514Z,98218.30
2019-01-13T18:03:12.216Z,98211.16
2019-01-13T18:06:21.345Z,98222.61
2019-01-13T18:11:57.732Z,98240.20
2019-01-13T18:14:29.747Z,98202.16
2019-01-13T18:17:06.479Z,98244.04
2019-01-13T18:19:38.161Z,98233.05
2019-01-13T18:22:28.884Z,98242.69
2019-01-13T18:25:00.646Z,98231.41
2019-01-13T18:27:53.876Z,98258.73
2019-01-13T18:30:28.904Z,98247.58
2019-01-13T18:33:19.899Z,98254.12
2019-01-13T18:35:52.853Z,98248.63
2019-01-13T18:38:43.708Z,98250.12
2019-01-13T18:44:44.923Z,98228.97
2019-01-13T18:47:17.160Z,98252.42
2019-01-13T18:49:50.798Z,98231.94
2019-01-13T18:52:44.678Z,98234.77
2019-01-13T18:55:27.936Z,98231.97
2019-01-13T18:58:32.951Z,98249.27
2019-01-13T19:01:31.343Z,98260.70
2019-01-13T19:07:05.716Z,98242.09
2019-01-13T19:09:38.412Z,98199.39
2019-01-13T19:12:51.496Z,98215.70
2019-01-13T19:15:42.536Z,98228.31
2019-01-13T19:18:16.963Z,98217.81
2019-01-13T19:20:49.147Z,98227.11
2019-01-13T19:27:15.002Z,98225.45
2019-01-13T19:35:23.539Z,98227.37
2019-01-13T19:38:15.300Z,98200.25
2019-01-13T19:40:47.584Z,98205.87
2019-01-13T19:43:39.380Z,98235.74
2019-01-13T19:49:26.829Z,98211.22
2019-01-13T19:51:49.968Z,98230.12
2019-01-13T19:54:40.824Z,98236.22
2019-01-13T20:03:21.958Z,98236.39
2019-01-13T20:06:13.363Z,98251.56
2019-01-13T20:08:45.158Z,98260.17
2019-01-13T20:11:39.636Z,98222.98
2019-01-13T20:14:30.537Z,98243.36
2019-01-13T20:17:31.029Z,98207.31
2019-01-13T20:20:25.922Z,98229.11
2019-01-13T20:23:16.555Z,98236.92
2019-01-13T20:26:08.959Z,98236.13
2019-01-13T20:29:14.443Z,98232.59
2019-01-13T20:31:45.267Z,98278.29
2019-01-13T20:34:19.816Z,98247.42
2019-01-13T20:36:52.075Z,98248.69
2019-01-13T20:40:06.919Z,98261.48
2019-01-13T20:42:59.094Z,98233.25
2019-01-13T20:45:50.166Z,98250.50
2019-01-13T20:48:32.319Z,98286.22
2019-01-13T20:54:16.918Z,98343.89
2019-01-13T20:59:39.168Z,98332.28
2019-01-13T21:02:50.850Z,98360.63
2019-01-13T21:05:26.843Z,98339.42
2019-01-13T21:08:16.407Z,98341.57
2019-01-13T21:10:48.720Z,98342.28
2019-01-13T21:16:24.517Z,98314.89
2019-01-13T21:19:17.605Z,98291.13
2019-01-13T21:25:12.798Z,98303.66
2019-01-13T21:30:49.947Z,98292.61
2019-01-13T21:33:22.856Z,98328.45
2019-01-13T21:41:50.958Z,98318.55
2019-01-13T21:47:32.671Z,98321.86
2019-01-13T21:50:24.153Z,98325.91
2019-01-13T21:56:19.083Z,98307.88
2019-01-13T21:59:09.896Z,98322.90
2019-01-13T22:02:00.723Z,98336.34
2019-01-13T22:04:32.972Z,98328.66
2019-01-13T22:07:05.207Z,98338.39
2019-01-13T22:09:57.441Z,98351.52
2019-01-13T22:12:30.088Z,98353.23
2019-01-13T22:15:02.449Z,98358.25
2019-01-13T22:20:41.308Z,98349.84
2019-01-13T22:23:32.261Z,98350.27
2019-01-13T22:26:04.318Z,98359.81
2019-01-13T22:28:36.592Z,98358.27
2019-01-13T22:33:53.336Z,98355.91
2019-01-13T22:36:25.660Z,98338.81
2019-01-13T22:39:30.208Z,98354.39
2019-01-13T22:42:29.585Z,98329.20
2019-01-13T22:48:12.227Z,98322.52
2019-01-13T22:53:46.670Z,98307.22
2019-01-13T22:56:18.973Z,98310.31
2019-01-13T22:58:51.417Z,98299.88
2019-01-13T23:04:55.934Z,98307.86
2019-01-13T23:10:17.098Z,98310.00
2019-01-13T23:13:03.329Z,98293.42
2019-01-13T23:18:30.372Z,98298.55
2019-01-13T23:21:32.355Z,98298.44
2019-01-13T23:24:08.659Z,98290.84
2019-01-13T23:27:01.780Z,98282.44
2019-01-13T23:29:33.906Z,98307.13
2019-01-13T23:32:05.990Z,98312.27
2019-01-13T23:34:38.239Z,98320.55
2019-01-13T23:37:10.483Z,98294.11
2019-01-13T23:42:46.229Z,98316.55
2019-01-13T23:48:21.129Z,98288.66
2019-01-13T23:50:54.207Z,98336.33
2019-01-13T23:53:26.551Z,98354.09
2019-01-13T23:56:18.587Z,98348.86
2019-01-13T23:58:50.678Z,98365.25
